createdAt,value
2022-12-24T00:01:05.594Z,98218.97
2022-12-24T00:03:33.746Z,98226.59
2022-12-24T00:06:07.915Z,98224.22
2022-12-24T00:08:35.249Z,98211.59
2022-12-24T00:11:02.497Z,98230.31
2022-12-24T00:13:29.323Z,98224.88
2022-12-24T00:15:56.053Z,98219.75
2022-12-24T00:18:22.920Z,98218.63
2022-12-24T00:20:50.975Z,98215.44
2022-12-24T00:23:18.311Z,98216.56
2022-12-24T00:25:45.538Z,98216.88
2022-12-24T00:28:13.419Z,98210.50
2022-12-24T00:30:42.567Z,98206.19
2022-12-24T00:33:10.245Z,98206.50
2022-12-24T00:35:38.916Z,98198.81
2022-12-24T00:38:06.088Z,98206.50
2022-12-24T00:40:33.514Z,98215.75
2022-12-24T00:43:00.543Z,98243.25
2022-12-24T00:45:28.062Z,98254.78
2022-12-24T00:47:55.230Z,98261.00
2022-12-24T00:50:21.994Z,98261.16
2022-12-24T00:52:48.731Z,98268.16
2022-12-24T00:55:15.681Z,98269.72
2022-12-24T00:57:42.468Z,98283.25
2022-12-24T01:00:09.733Z,98285.16
2022-12-24T01:02:36.718Z,98289.59
2022-12-24T01:05:12.814Z,98294.88
2022-12-24T01:07:44.182Z,98319.72
2022-12-24T01:10:17.958Z,98315.25
2022-12-24T01:12:45.463Z,98330.06
2022-12-24T01:15:14.501Z,98335.78
2022-12-24T01:17:41.355Z,98331.47
2022-12-24T01:20:13.342Z,98338.81
2022-12-24T01:22:40.104Z,98343.28
2022-12-24T01:25:07.203Z,98337.84
2022-12-24T01:27:33.992Z,98333.69
2022-12-24T01:30:00.963Z,98348.38
2022-12-24T01:32:27.817Z,98338.44
2022-12-24T01:34:54.617Z,98344.97
2022-12-24T01:37:21.437Z,98349.63
2022-12-24T01:39:48.236Z,98358.53
2022-12-24T01:42:41.496Z,98368.28
2022-12-24T01:45:36.524Z,98376.41
2022-12-24T01:48:05.057Z,98388.38
2022-12-24T01:50:31.943Z,98397.31
2022-12-24T01:52:58.982Z,98396.00
2022-12-24T01:55:26.154Z,98381.59
2022-12-24T01:57:56.459Z,98381.22
2022-12-24T02:00:23.626Z,98376.38
2022-12-24T02:02:53.441Z,98380.69
2022-12-24T02:05:57.504Z,98364.75
2022-12-24T02:08:24.258Z,98361.06
2022-12-24T02:10:51.084Z,98362.19
2022-12-24T02:13:20.967Z,98375.25
2022-12-24T02:16:01.505Z,98386.88
2022-12-24T02:18:43.476Z,98387.19
2022-12-24T02:21:56.441Z,98392.13
2022-12-24T02:25:02.358Z,98390.50
2022-12-24T02:27:35.053Z,98379.97
2022-12-24T02:30:11.564Z,98380.56
2022-12-24T02:33:17.408Z,98375.97
2022-12-24T02:35:59.943Z,98378.97
2022-12-24T02:38:35.259Z,98382.78
2022-12-24T02:41:12.895Z,98401.28
2022-12-24T02:43:44.027Z,98401.59
2022-12-24T02:46:21.819Z,98406.69
2022-12-24T02:48:49.601Z,98417.53
2022-12-24T02:51:16.836Z,98412.94
2022-12-24T02:53:43.617Z,98405.59
2022-12-24T02:56:30.476Z,98412.13
2022-12-24T02:59:16.160Z,98402.09
2022-12-24T03:02:03.325Z,98406.06
2022-12-24T03:04:56.955Z,98410.72
2022-12-24T03:07:33.705Z,98415.81
2022-12-24T03:10:18.703Z,98419.84
2022-12-24T03:12:54.543Z,98415.19
2022-12-24T03:15:23.990Z,98443.28
2022-12-24T03:17:55.499Z,98446.00
2022-12-24T03:20:28.510Z,98446.00
2022-12-24T03:22:55.540Z,98444.91
2022-12-24T03:25:25.362Z,98432.94
2022-12-24T03:27:52.828Z,98439.97
2022-12-24T03:30:20.782Z,98444.28
2022-12-24T03:32:47.646Z,98435.38
2022-12-24T03:35:14.572Z,98455.44
2022-12-24T03:37:41.368Z,98458.44
2022-12-24T03:40:08.829Z,98464.19
2022-12-24T03:42:35.793Z,98466.91
2022-12-24T03:45:02.651Z,98472.31
2022-12-24T03:47:30.588Z,98465.31
2022-12-24T03:49:57.403Z,98466.09
2022-12-24T03:52:24.581Z,98474.53
2022-12-24T03:54:51.659Z,98481.34
2022-12-24T03:57:18.440Z,98480.25
2022-12-24T03:59:45.189Z,98469.13
2022-12-24T04:02:12.069Z,98475.94
2022-12-24T04:04:39.054Z,98497.94
2022-12-24T04:07:06.581Z,98488.31
2022-12-24T04:09:33.751Z,98489.72
2022-12-24T04:12:00.801Z,98486.00
2022-12-24T04:14:27.545Z,98476.59
2022-12-24T04:16:54.370Z,98489.81
2022-12-24T04:19:21.140Z,98498.25
2022-12-24T04:21:47.918Z,98496.16
2022-12-24T04:24:14.627Z,98488.16
2022-12-24T04:26:41.379Z,98486.00
2022-12-24T04:29:08.236Z,98497.25
2022-12-24T04:31:35.029Z,98493.06
2022-12-24T04:34:01.959Z,98497.06
2022-12-24T04:36:29.980Z,98509.91
2022-12-24T04:38:56.786Z,98518.94
2022-12-24T04:41:25.127Z,98511.41
2022-12-24T04:43:53.759Z,98506.59
2022-12-24T04:46:24.116Z,98514.91
2022-12-24T04:48:53.152Z,98518.44
2022-12-24T04:51:20.735Z,98524.63
2022-12-24T04:53:47.495Z,98517.09
2022-12-24T04:56:20.348Z,98530.97
2022-12-24T04:58:47.782Z,98520.91
2022-12-24T05:01:18.911Z,98515.63
2022-12-24T05:03:46.159Z,98522.84
2022-12-24T05:06:15.179Z,98510.63
2022-12-24T05:08:43.708Z,98526.53
2022-12-24T05:11:14.168Z,98528.97
2022-12-24T05:13:46.601Z,98534.38
2022-12-24T05:16:15.872Z,98517.53
2022-12-24T05:18:42.866Z,98529.47
2022-12-24T05:21:13.235Z,98522.97
2022-12-24T05:23:58.827Z,98521.03
2022-12-24T05:26:31.218Z,98520.94
2022-12-24T05:29:00.265Z,98520.66
2022-12-24T05:31:29.013Z,98512.69
2022-12-24T05:33:55.893Z,98513.53
2022-12-24T05:36:23.411Z,98519.44
2022-12-24T05:38:50.632Z,98528.56
2022-12-24T05:41:17.512Z,98524.75
2022-12-24T05:43:44.556Z,98522.06
2022-12-24T05:46:13.704Z,98534.19
2022-12-24T05:48:40.767Z,98532.59
2022-12-24T05:51:09.766Z,98536.19
2022-12-24T05:53:37.266Z,98538.41
2022-12-24T05:56:12.747Z,98529.78
2022-12-24T05:58:40.577Z,98530.56
2022-12-24T06:01:08.119Z,98538.00
2022-12-24T06:03:35.759Z,98545.63
2022-12-24T06:06:04.044Z,98554.44
2022-12-24T06:08:31.817Z,98552.34
2022-12-24T06:11:01.056Z,98550.13
2022-12-24T06:13:28.450Z,98551.75
2022-12-24T06:15:56.648Z,98558.66
2022-12-24T06:18:23.672Z,98558.34
2022-12-24T06:20:55.229Z,98558.25
2022-12-24T06:23:24.752Z,98564.88
2022-12-24T06:25:51.917Z,98578.41
2022-12-24T06:28:18.744Z,98575.41
2022-12-24T06:30:55.803Z,98582.41
2022-12-24T06:33:25.498Z,98585.72
2022-12-24T06:35:52.510Z,98578.00
2022-12-24T06:38:19.342Z,98594.34
2022-12-24T06:40:49.433Z,98597.13
2022-12-24T06:43:16.369Z,98590.91
2022-12-24T06:45:47.907Z,98593.16
2022-12-24T06:48:15.745Z,98596.78
2022-12-24T06:50:43.114Z,98608.03
2022-12-24T06:53:10.161Z,98600.91
2022-12-24T06:55:37.419Z,98604.03
2022-12-24T06:58:04.438Z,98599.09
2022-12-24T07:00:31.768Z,98600.72
2022-12-24T07:02:59.153Z,98610.44
2022-12-24T07:05:26.483Z,98615.56
2022-12-24T07:07:53.290Z,98625.88
2022-12-24T07:10:20.767Z,98617.84
2022-12-24T07:12:48.141Z,98624.09
2022-12-24T07:15:16.193Z,98627.09
2022-12-24T07:17:43.110Z,98627.41
2022-12-24T07:20:13.682Z,98637.72
2022-12-24T07:22:40.640Z,98646.94
2022-12-24T07:25:08.067Z,98655.38
2022-12-24T07:27:34.949Z,98650.75
2022-12-24T07:30:06.062Z,98645.63
2022-12-24T07:32:32.940Z,98650.34
2022-12-24T07:35:00.131Z,98643.31
2022-12-24T07:37:27.031Z,98649.34
2022-12-24T07:39:54.019Z,98654.00
2022-12-24T07:42:21.017Z,98647.59
2022-12-24T07:44:47.943Z,98645.97
2022-12-24T07:47:14.725Z,98647.66
2022-12-24T07:49:41.567Z,98647.56
2022-12-24T07:52:08.861Z,98657.38
2022-12-24T07:54:35.807Z,98660.88
2022-12-24T07:57:02.570Z,98668.13
2022-12-24T07:59:29.405Z,98655.59
2022-12-24T08:01:56.324Z,98651.69
2022-12-24T08:04:25.471Z,98654.91
2022-12-24T08:06:52.149Z,98661.13
2022-12-24T08:09:19.003Z,98652.41
2022-12-24T08:11:51.709Z,98664.56
2022-12-24T08:14:19.761Z,98662.13
2022-12-24T08:16:46.656Z,98660.09
2022-12-24T08:19:14.733Z,98669.91
2022-12-24T08:21:41.538Z,98664.31
2022-12-24T08:24:08.603Z,98681.34
2022-12-24T08:26:35.493Z,98671.53
2022-12-24T08:29:03.914Z,98682.00
2022-12-24T08:31:31.037Z,98688.63
2022-12-24T08:33:57.853Z,98685.03
2022-12-24T08:36:24.657Z,98683.88
2022-12-24T08:38:51.678Z,98684.13
2022-12-24T08:41:18.449Z,98681.44
2022-12-24T08:43:45.268Z,98675.22
2022-12-24T08:46:12.305Z,98682.25
2022-12-24T08:48:42.256Z,98689.06
2022-12-24T08:51:10.855Z,98694.47
2022-12-24T08:53:38.376Z,98685.63
2022-12-24T08:56:07.621Z,98695.44
2022-12-24T08:58:34.451Z,98701.47
2022-12-24T09:01:01.822Z,98703.66
2022-12-24T09:03:28.783Z,98710.38
2022-12-24T09:05:55.794Z,98716.81
2022-12-24T09:08:22.748Z,98718.13
2022-12-24T09:10:49.557Z,98727.78
2022-12-24T09:13:19.395Z,98730.59
2022-12-24T09:16:01.782Z,98732.13
2022-12-24T09:18:29.079Z,98734.25
2022-12-24T09:20:59.826Z,98739.47
2022-12-24T09:23:26.811Z,98741.69
2022-12-24T09:25:53.660Z,98749.72
2022-12-24T09:28:20.560Z,98756.44
2022-12-24T09:30:57.959Z,98758.63
2022-12-24T09:33:25.553Z,98764.38
2022-12-24T09:35:55.625Z,98762.44
2022-12-24T09:38:23.323Z,98759.22
2022-12-24T09:40:51.004Z,98767.06
2022-12-24T09:43:22.794Z,98761.06
2022-12-24T09:46:04.858Z,98775.03
2022-12-24T09:48:35.928Z,98775.53
2022-12-24T09:51:10.276Z,98776.56
2022-12-24T09:54:00.299Z,98779.78
2022-12-24T09:56:31.398Z,98775.97
2022-12-24T09:59:04.259Z,98777.88
2022-12-24T10:01:33.486Z,98780.28
2022-12-24T10:04:16.483Z,98777.88
2022-12-24T10:07:19.821Z,98781.91
2022-12-24T10:09:58.723Z,98783.72
2022-12-24T10:12:35.754Z,98785.44
2022-12-24T10:15:14.803Z,98784.06
2022-12-24T10:18:06.306Z,98792.47
2022-12-24T10:20:45.152Z,98785.38
2022-12-24T10:23:38.251Z,98797.03
2022-12-24T10:26:20.295Z,98795.41
2022-12-24T10:28:52.593Z,98797.81
2022-12-24T10:31:25.420Z,98800.03
2022-12-24T10:34:00.274Z,98782.97
2022-12-24T10:36:29.726Z,98790.88
2022-12-24T10:38:59.322Z,98798.72
2022-12-24T10:41:28.132Z,98799.81
2022-12-24T10:43:55.731Z,98798.22
2022-12-24T10:46:33.180Z,98802.31
2022-12-24T10:49:06.465Z,98807.03
2022-12-24T10:52:27.794Z,98812.44
2022-12-24T10:55:19.976Z,98797.56
2022-12-24T10:58:04.895Z,98794.84
2022-12-24T11:00:36.320Z,98785.44
2022-12-24T11:03:11.498Z,98793.06
2022-12-24T11:05:39.398Z,98795.16
2022-12-24T11:08:17.256Z,98791.63
2022-12-24T11:11:02.534Z,98800.50
2022-12-24T11:13:49.886Z,98800.78
2022-12-24T11:16:35.641Z,98810.25
2022-12-24T11:19:05.592Z,98809.66
2022-12-24T11:21:35.846Z,98798.81
2022-12-24T11:24:18.535Z,98803.72
2022-12-24T11:26:45.356Z,98809.75
2022-12-24T11:29:17.493Z,98814.66
2022-12-24T11:31:45.361Z,98807.81
2022-12-24T11:34:29.150Z,98811.03
2022-12-24T11:37:16.278Z,98804.00
2022-12-24T11:40:01.126Z,98809.44
2022-12-24T11:42:38.156Z,98800.69
2022-12-24T11:45:24.292Z,98803.91
2022-12-24T11:47:53.558Z,98808.75
2022-12-24T11:50:26.411Z,98796.22
2022-12-24T11:53:04.082Z,98796.44
2022-12-24T11:55:44.711Z,98791.28
2022-12-24T11:58:29.378Z,98791.78
2022-12-24T12:01:08.742Z,98794.22
2022-12-24T12:03:45.329Z,98785.38
2022-12-24T12:06:38.195Z,98788.56
2022-12-24T12:09:21.737Z,98782.56
2022-12-24T12:12:05.633Z,98775.44
2022-12-24T12:14:41.148Z,98773.25
2022-12-24T12:17:22.964Z,98773.53
2022-12-24T12:19:59.826Z,98779.56
2022-12-24T12:23:10.829Z,98781.97
2022-12-24T12:25:52.038Z,98777.06
2022-12-24T12:28:23.779Z,98786.13
2022-12-24T12:31:02.315Z,98787.56
2022-12-24T12:33:41.136Z,98794.53
2022-12-24T12:36:10.813Z,98787.28
2022-12-24T12:38:38.797Z,98797.81
2022-12-24T12:41:10.554Z,98799.22
2022-12-24T12:43:46.250Z,98803.22
2022-12-24T12:46:17.482Z,98802.97
2022-12-24T12:49:18.472Z,98796.31
2022-12-24T12:52:03.525Z,98800.41
2022-12-24T12:54:59.018Z,98793.13
2022-12-24T12:57:31.758Z,98799.06
2022-12-24T13:00:11.802Z,98792.50
2022-12-24T13:03:13.121Z,98788.81
2022-12-24T13:05:56.821Z,98780.66
2022-12-24T13:08:29.571Z,98784.28
2022-12-24T13:11:22.511Z,98785.25
2022-12-24T13:14:30.594Z,98776.50
2022-12-24T13:17:12.665Z,98790.28
2022-12-24T13:19:49.143Z,98789.91
2022-12-24T13:22:18.537Z,98790.25
2022-12-24T13:24:53.816Z,98791.16
2022-12-24T13:27:24.803Z,98797.41
2022-12-24T13:29:57.040Z,98794.38
2022-12-24T13:32:37.266Z,98787.81
2022-12-24T13:35:23.999Z,98775.06
2022-12-24T13:37:51.857Z,98787.19
2022-12-24T13:40:28.446Z,98791.53
2022-12-24T13:43:01.344Z,98789.75
2022-12-24T13:45:34.294Z,98783.25
2022-12-24T13:48:09.547Z,98783.47
2022-12-24T13:50:38.038Z,98772.34
2022-12-24T13:53:06.788Z,98772.44
2022-12-24T13:55:34.679Z,98759.91
2022-12-24T13:58:03.947Z,98768.34
2022-12-24T14:00:41.105Z,98770.84
2022-12-24T14:03:14.559Z,98768.56
2022-12-24T14:05:44.797Z,98773.91
2022-12-24T14:08:37.425Z,98769.56
2022-12-24T14:11:23.062Z,98767.56
2022-12-24T14:13:51.482Z,98769.78
2022-12-24T14:16:23.678Z,98768.97
2022-12-24T14:19:16.287Z,98772.50
2022-12-24T14:21:51.938Z,98770.91
2022-12-24T14:24:42.960Z,98771.69
2022-12-24T14:27:18.549Z,98757.09
2022-12-24T14:30:24.915Z,98753.91
2022-12-24T14:32:53.341Z,98753.50
2022-12-24T14:35:29.472Z,98763.16
2022-12-24T14:38:07.886Z,98767.28
2022-12-24T14:40:43.202Z,98769.19
2022-12-24T14:43:47.912Z,98776.03
2022-12-24T14:46:28.665Z,98794.31
2022-12-24T14:49:04.209Z,98789.28
2022-12-24T14:51:50.772Z,98793.88
2022-12-24T14:54:33.753Z,98810.03
2022-12-24T14:57:09.961Z,98799.28
2022-12-24T15:00:02.244Z,98795.84
2022-12-24T15:02:50.064Z,98782.06
2022-12-24T15:05:20.013Z,98784.84
2022-12-24T15:07:57.886Z,98773.50
2022-12-24T15:10:33.373Z,98782.75
2022-12-24T15:13:22.014Z,98787.38
2022-12-24T15:15:52.957Z,98794.78
2022-12-24T15:18:25.383Z,98796.38
2022-12-24T15:21:01.779Z,98798.00
2022-12-24T15:23:33.814Z,98802.91
2022-12-24T15:26:20.109Z,98800.78
2022-12-24T15:28:47.579Z,98807.81
2022-12-24T15:31:20.468Z,98819.47
2022-12-24T15:33:49.019Z,98823.06
2022-12-24T15:36:24.151Z,98820.16
2022-12-24T15:38:53.669Z,98821.63
2022-12-24T15:41:29.998Z,98825.59
2022-12-24T15:44:02.865Z,98833.28
2022-12-24T15:46:31.252Z,98828.94
2022-12-24T15:49:01.803Z,98823.31
2022-12-24T15:51:38.414Z,98827.34
2022-12-24T15:54:16.172Z,98832.53
2022-12-24T15:56:44.712Z,98823.81
2022-12-24T15:59:38.301Z,98820.31
2022-12-24T16:02:36.153Z,98825.50
2022-12-24T16:05:30.215Z,98823.44
2022-12-24T16:08:08.685Z,98822.66
2022-12-24T16:10:44.525Z,98833.50
2022-12-24T16:13:13.114Z,98839.41
2022-12-24T16:15:54.532Z,98845.63
2022-12-24T16:18:33.308Z,98841.69
2022-12-24T16:21:00.320Z,98834.34
2022-12-24T16:23:34.218Z,98833.06
2022-12-24T16:26:00.953Z,98830.34
2022-12-24T16:28:27.757Z,98846.59
2022-12-24T16:30:56.360Z,98856.09
2022-12-24T16:33:26.190Z,98852.59
2022-12-24T16:35:52.911Z,98849.88
2022-12-24T16:38:19.673Z,98857.44
2022-12-24T16:40:47.005Z,98866.34
2022-12-24T16:43:32.533Z,98883.22
2022-12-24T16:46:05.296Z,98872.78
2022-12-24T16:48:36.364Z,98855.44
2022-12-24T16:51:03.650Z,98860.97
2022-12-24T16:53:30.791Z,98854.00
2022-12-24T16:55:57.624Z,98852.91
2022-12-24T16:58:24.435Z,98853.13
2022-12-24T17:00:51.243Z,98855.19
2022-12-24T17:03:18.196Z,98860.03
2022-12-24T17:05:45.328Z,98870.84
2022-12-24T17:08:13.147Z,98877.88
2022-12-24T17:10:40.600Z,98874.38
2022-12-24T17:13:07.534Z,98881.22
2022-12-24T17:15:34.453Z,98878.31
2022-12-24T17:18:01.291Z,98876.75
2022-12-24T17:20:28.199Z,98881.34
2022-12-24T17:22:54.948Z,98881.34
2022-12-24T17:25:21.754Z,98878.41
2022-12-24T17:27:48.599Z,98878.97
2022-12-24T17:30:16.226Z,98884.97
2022-12-24T17:32:43.436Z,98880.91
2022-12-24T17:35:11.114Z,98891.41
2022-12-24T17:37:38.071Z,98893.03
2022-12-24T17:40:09.713Z,98892.25
2022-12-24T17:42:37.798Z,98893.00
2022-12-24T17:45:05.564Z,98906.00
2022-12-24T17:47:32.909Z,98898.13
2022-12-24T17:50:00.351Z,98895.91
2022-12-24T17:52:27.232Z,98888.38
2022-12-24T17:54:58.824Z,98887.63
2022-12-24T17:57:25.769Z,98888.19
2022-12-24T17:59:52.589Z,98877.94
2022-12-24T18:02:19.551Z,98871.75
2022-12-24T18:04:46.656Z,98878.97
2022-12-24T18:07:13.656Z,98878.91
2022-12-24T18:09:43.863Z,98868.09
2022-12-24T18:12:11.527Z,98867.53
2022-12-24T18:14:38.800Z,98867.38
2022-12-24T18:17:05.633Z,98871.16
2022-12-24T18:19:32.464Z,98875.81
2022-12-24T18:21:59.219Z,98878.53
2022-12-24T18:24:26.024Z,98888.31
2022-12-24T18:26:52.947Z,98886.19
2022-12-24T18:29:19.669Z,98884.88
2022-12-24T18:31:46.474Z,98879.97
2022-12-24T18:34:14.086Z,98878.63
2022-12-24T18:36:41.103Z,98888.94
2022-12-24T18:39:09.726Z,98884.34
2022-12-24T18:41:36.895Z,98886.75
2022-12-24T18:44:04.077Z,98886.75
2022-12-24T18:46:33.372Z,98887.78
2022-12-24T18:49:02.076Z,98903.44
2022-12-24T18:51:32.328Z,98899.91
2022-12-24T18:53:59.279Z,98899.91
2022-12-24T18:56:27.399Z,98898.50
2022-12-24T18:58:57.084Z,98896.63
2022-12-24T19:01:29.175Z,98897.97
2022-12-24T19:03:57.800Z,98884.22
2022-12-24T19:06:25.039Z,98881.00
2022-12-24T19:08:57.714Z,98879.16
2022-12-24T19:11:26.729Z,98877.84
2022-12-24T19:13:53.740Z,98889.75
2022-12-24T19:16:21.843Z,98895.97
2022-12-24T19:18:49.590Z,98888.38
2022-12-24T19:21:17.664Z,98880.25
2022-12-24T19:23:45.569Z,98877.31
2022-12-24T19:26:14.740Z,98872.25
2022-12-24T19:28:42.514Z,98872.03
2022-12-24T19:31:15.645Z,98881.22
2022-12-24T19:33:44.865Z,98886.13
2022-12-24T19:36:15.518Z,98888.25
2022-12-24T19:38:42.540Z,98903.66
2022-12-24T19:41:15.227Z,98910.97
2022-12-24T19:43:51.277Z,98915.06
2022-12-24T19:46:26.014Z,98915.31
2022-12-24T19:48:55.675Z,98916.09
2022-12-24T19:51:24.119Z,98925.88
2022-12-24T19:53:52.267Z,98928.06
2022-12-24T19:56:20.618Z,98939.41
2022-12-24T19:58:48.352Z,98944.75
2022-12-24T20:01:21.398Z,98947.41
2022-12-24T20:03:49.566Z,98946.06
2022-12-24T20:06:18.453Z,98947.66
2022-12-24T20:08:45.670Z,98951.47
2022-12-24T20:11:18.168Z,98950.66
2022-12-24T20:13:45.764Z,98946.31
2022-12-24T20:16:18.736Z,98946.06
2022-12-24T20:18:54.464Z,98940.66
2022-12-24T20:21:22.264Z,98946.84
2022-12-24T20:23:50.124Z,98945.28
2022-12-24T20:26:19.832Z,98946.09
2022-12-24T20:28:47.362Z,98944.72
2022-12-24T20:31:16.004Z,98940.34
2022-12-24T20:33:44.192Z,98940.88
2022-12-24T20:36:12.483Z,98946.31
2022-12-24T20:38:40.045Z,98938.31
2022-12-24T20:41:09.570Z,98937.78
2022-12-24T20:43:44.991Z,98932.66
2022-12-24T20:46:14.981Z,98933.19
2022-12-24T20:48:42.319Z,98930.19
2022-12-24T20:51:17.725Z,98926.69
2022-12-24T20:53:51.876Z,98922.31
2022-12-24T20:56:19.191Z,98927.16
2022-12-24T20:58:46.921Z,98926.06
2022-12-24T21:01:20.966Z,98929.31
2022-12-24T21:03:51.040Z,98934.41
2022-12-24T21:06:19.421Z,98945.22
2022-12-24T21:08:52.254Z,98944.13
2022-12-24T21:11:38.303Z,98960.94
2022-12-24T21:14:05.527Z,98967.53
2022-12-24T21:16:33.998Z,98973.78
2022-12-24T21:19:07.574Z,98974.00
2022-12-24T21:21:41.068Z,98986.16
2022-12-24T21:24:08.681Z,98985.84
2022-12-24T21:26:36.531Z,98982.63
2022-12-24T21:29:04.608Z,98988.03
2022-12-24T21:31:31.732Z,98984.84
2022-12-24T21:33:58.709Z,98992.44
2022-12-24T21:36:26.902Z,98995.69
2022-12-24T21:38:54.326Z,98988.66
2022-12-24T21:41:23.660Z,98990.00
2022-12-24T21:43:52.762Z,98994.31
2022-12-24T21:46:23.179Z,98987.81
2022-12-24T21:49:11.201Z,98981.28
2022-12-24T21:51:38.820Z,98978.63
2022-12-24T21:54:25.588Z,98977.84
2022-12-24T21:57:22.571Z,98970.59
2022-12-24T21:59:51.065Z,98964.41
2022-12-24T22:02:18.554Z,98955.19
2022-12-24T22:04:46.040Z,98949.22
2022-12-24T22:07:41.732Z,98945.16
2022-12-24T22:10:29.331Z,98933.50
2022-12-24T22:12:58.186Z,98921.06
2022-12-24T22:15:24.932Z,98919.41
2022-12-24T22:17:52.828Z,98913.78
2022-12-24T22:20:19.509Z,98904.28
2022-12-24T22:22:47.824Z,98897.22
2022-12-24T22:25:14.882Z,98902.91
2022-12-24T22:27:41.742Z,98895.03
2022-12-24T22:30:09.206Z,98894.44
2022-12-24T22:32:35.954Z,98897.41
2022-12-24T22:35:02.750Z,98897.94
2022-12-24T22:37:29.463Z,98907.34
2022-12-24T22:39:56.215Z,98902.19
2022-12-24T22:42:22.979Z,98907.59
2022-12-24T22:44:49.717Z,98903.81
2022-12-24T22:47:17.634Z,98900.81
2022-12-24T22:49:44.490Z,98895.34
2022-12-24T22:52:11.493Z,98904.53
2022-12-24T22:54:38.306Z,98902.88
2022-12-24T22:57:05.078Z,98908.81
2022-12-24T22:59:31.956Z,98905.31
2022-12-24T23:01:59.130Z,98901.50
2022-12-24T23:04:26.167Z,98898.56
2022-12-24T23:06:53.085Z,98898.28
2022-12-24T23:09:19.804Z,98899.06
2022-12-24T23:11:46.661Z,98901.25
2022-12-24T23:14:37.729Z,98900.75
2022-12-24T23:17:04.599Z,98915.66
2022-12-24T23:19:33.383Z,98911.63
2022-12-24T23:22:01.958Z,98917.03
2022-12-24T23:24:28.827Z,98907.31
2022-12-24T23:26:55.855Z,98892.47
2022-12-24T23:29:22.746Z,98893.81
2022-12-24T23:31:49.494Z,98900.06
2022-12-24T23:34:16.252Z,98900.84
2022-12-24T23:36:43.067Z,98889.75
2022-12-24T23:39:09.913Z,98903.81
2022-12-24T23:41:36.683Z,98889.97
2022-12-24T23:44:03.813Z,98897.53
2022-12-24T23:46:30.712Z,98891.84
2022-12-24T23:48:57.785Z,98886.44
2022-12-24T23:51:27.445Z,98890.44
2022-12-24T23:53:56.568Z,98895.00
2022-12-24T23:56:24.912Z,98895.22
2022-12-24T23:58:52.976Z,98897.94
